Portada
METAR-TAF:

METAR-TAF

Aeroports :

Ouagadougou, Burkina Faso

Aeroport d'Ouagadougou

latitud: 12-21N, longitud: 001-31W, altitud: 316 m

Observació

L'informe es va fer fa 3 hores i 6 minuts, a les 22:00 UTC
Vent 4 kt del Nord-Est
Temperatura 23°C
Humitat 19%
Pressió 1014 hPa
Visibilitat: 8000 m

METAR: DFFD 192200Z 04004KT 8000 NSC 23/M02 Q1014 NOSIG

Hora: 01:06 (01:06 UTC)

Pronòstic

L'informe es va fer fa 2 hores i 6 minuts, a les 23:00 UTC
Pronòstic vàlid del 20 a les 00 UTC al 21 a les 06 UTC
Vent 8 kt del Est
Visibilitat: 8000 m
Temporalment
l' 20 a les 06 UTC al 20 a les 11 UTC
Visibilitat: 4000 m
Pols estès
Temporalment
l' 20 a les 17 UTC al 20 a les 20 UTC
Visibilitat: 4000 m
Pols estès

TAF: DFFD 192300Z 2000/2106 08008KT 8000 NSC TEMPO 2006/2011 4000 DU TEMPO 2017/2020 4000 DU

Observacions i pronòstics meteorològics de més de 4000 aeroports (METAR i TAF).

Les estacions disponibles són els punts grocs i vermells al mapa.

Posi el ratolí al punt desitjat per veure el nom de l'estació.

Feu clic per veure les observacions i els pronòstics meteorològics.

Per canviar el mapa: feu clic els botons verds amb una creu de color negre per apropar; al botó verd amb un guió per allunyar la imatge; o en les fletxes verdes per a mapes adjacents.


METAR-TAF: